createdAt,value
2017-02-05T00:00:05.752Z,994.31
2017-02-05T00:00:31.959Z,994.33
2017-02-05T00:00:58.157Z,994.29
2017-02-05T00:01:24.309Z,994.31
2017-02-05T00:01:50.453Z,994.29
2017-02-05T00:02:16.632Z,994.29
2017-02-05T00:02:42.799Z,994.3
2017-02-05T00:03:08.931Z,994.25
2017-02-05T00:03:35.134Z,994.25
2017-02-05T00:04:01.319Z,994.24
2017-02-05T00:04:27.521Z,994.25
2017-02-05T00:04:53.692Z,994.23
2017-02-05T00:05:19.838Z,994.24
2017-02-05T00:05:45.970Z,994.24
2017-02-05T00:06:12.088Z,994.23
2017-02-05T00:06:38.248Z,994.25
2017-02-05T00:07:04.410Z,994.23
2017-02-05T00:07:30.560Z,994.23
2017-02-05T00:07:56.717Z,994.18
2017-02-05T00:08:22.837Z,994.25
2017-02-05T00:08:48.974Z,994.23
2017-02-05T00:09:15.138Z,994.23
2017-02-05T00:09:41.247Z,994.26
2017-02-05T00:10:07.439Z,994.24
2017-02-05T00:10:33.665Z,994.27
2017-02-05T00:10:59.783Z,994.25
2017-02-05T00:11:25.965Z,994.22
2017-02-05T00:11:52.180Z,994.29
2017-02-05T00:12:18.329Z,994.27
2017-02-05T00:12:44.476Z,994.26
2017-02-05T00:13:10.608Z,994.24
2017-02-05T00:13:36.791Z,994.26
2017-02-05T00:14:02.955Z,994.24
2017-02-05T00:14:29.126Z,994.24
2017-02-05T00:14:55.311Z,994.25
2017-02-05T00:15:21.454Z,994.25
2017-02-05T00:15:47.644Z,994.25
2017-02-05T00:16:13.821Z,994.25
2017-02-05T00:16:40.014Z,994.24
2017-02-05T00:17:06.175Z,994.23
2017-02-05T00:17:32.311Z,994.24
2017-02-05T00:17:58.481Z,994.27
2017-02-05T00:18:24.659Z,994.22
2017-02-05T00:18:50.849Z,994.25
2017-02-05T00:19:16.968Z,994.23
2017-02-05T00:19:43.139Z,994.24
2017-02-05T00:20:09.247Z,994.22
2017-02-05T00:20:35.431Z,994.21
2017-02-05T00:21:01.647Z,994.19
2017-02-05T00:21:27.735Z,994.19
2017-02-05T00:21:53.925Z,994.21
2017-02-05T00:22:20.036Z,994.19
2017-02-05T00:22:46.202Z,994.19
2017-02-05T00:23:12.352Z,994.17
2017-02-05T00:23:38.525Z,994.16
2017-02-05T00:24:04.660Z,994.17
2017-02-05T00:24:30.777Z,994.19
2017-02-05T00:24:56.940Z,994.19
2017-02-05T00:25:23.036Z,994.24
2017-02-05T00:25:49.181Z,994.2
2017-02-05T00:26:15.334Z,994.2
2017-02-05T00:26:41.594Z,994.19
2017-02-05T00:27:07.696Z,994.2
2017-02-05T00:27:33.871Z,994.19
2017-02-05T00:28:00.095Z,994.21
2017-02-05T00:28:26.252Z,994.23
2017-02-05T00:28:52.436Z,994.23
2017-02-05T00:29:18.567Z,994.23
2017-02-05T00:29:44.694Z,994.22
2017-02-05T00:30:10.944Z,994.2
2017-02-05T00:30:37.116Z,994.22
2017-02-05T00:31:03.347Z,994.24
2017-02-05T00:31:29.520Z,994.2
2017-02-05T00:31:55.703Z,994.2
2017-02-05T00:32:22.192Z,994.21
2017-02-05T00:32:48.455Z,994.23
2017-02-05T00:33:14.639Z,994.22
2017-02-05T00:33:40.791Z,994.23
2017-02-05T00:34:06.959Z,994.23
2017-02-05T00:34:33.252Z,994.26
2017-02-05T00:34:59.387Z,994.28
2017-02-05T00:35:25.529Z,994.25
2017-02-05T00:35:51.776Z,994.24
2017-02-05T00:36:17.900Z,994.25
2017-02-05T00:36:44.093Z,994.27
2017-02-05T00:37:10.257Z,994.22
2017-02-05T00:37:36.375Z,994.27
2017-02-05T00:38:02.504Z,994.26
2017-02-05T00:38:28.814Z,994.26
2017-02-05T00:38:54.989Z,994.23
2017-02-05T00:39:21.114Z,994.28
2017-02-05T00:39:47.299Z,994.26
2017-02-05T00:40:13.426Z,994.25
2017-02-05T00:40:39.698Z,994.29
2017-02-05T00:41:05.815Z,994.29
2017-02-05T00:41:31.958Z,994.23
2017-02-05T00:41:58.174Z,994.26
2017-02-05T00:42:24.325Z,994.28
2017-02-05T00:42:50.517Z,994.28
2017-02-05T00:43:16.736Z,994.23
2017-02-05T00:43:42.964Z,994.26
2017-02-05T00:44:09.110Z,994.24
2017-02-05T00:44:35.329Z,994.23
2017-02-05T00:45:01.526Z,994.28
2017-02-05T00:45:27.779Z,994.27
2017-02-05T00:45:53.976Z,994.27
2017-02-05T00:46:20.142Z,994.27
2017-02-05T00:46:46.355Z,994.25
2017-02-05T00:47:12.543Z,994.3
2017-02-05T00:47:38.661Z,994.29
2017-02-05T00:48:04.845Z,994.25
2017-02-05T00:48:31.068Z,994.28
2017-02-05T00:48:57.202Z,994.29
2017-02-05T00:49:23.391Z,994.29
2017-02-05T00:49:49.641Z,994.3
2017-02-05T00:50:15.771Z,994.31
2017-02-05T00:50:42.049Z,994.29
2017-02-05T00:51:08.290Z,994.28
2017-02-05T00:51:34.452Z,994.29
2017-02-05T00:52:00.661Z,994.3
2017-02-05T00:52:26.851Z,994.32
2017-02-05T00:52:53.079Z,994.33
2017-02-05T00:53:19.261Z,994.36
2017-02-05T00:53:45.391Z,994.3
2017-02-05T00:54:11.598Z,994.3
2017-02-05T00:54:37.872Z,994.29
2017-02-05T00:55:04.167Z,994.33
2017-02-05T00:55:30.973Z,994.31
2017-02-05T00:55:57.233Z,994.32
2017-02-05T00:56:23.495Z,994.3
2017-02-05T00:56:49.911Z,994.29
2017-02-05T00:57:16.278Z,994.29
2017-02-05T00:57:42.475Z,994.32
2017-02-05T00:58:08.795Z,994.31
2017-02-05T00:58:34.954Z,994.31
2017-02-05T00:59:01.154Z,994.27
2017-02-05T00:59:27.406Z,994.3
2017-02-05T00:59:53.714Z,994.26
2017-02-05T01:00:19.925Z,994.27
2017-02-05T01:00:46.147Z,994.28
2017-02-05T01:01:12.598Z,994.28
2017-02-05T01:01:38.709Z,994.3
2017-02-05T01:02:04.930Z,994.27
2017-02-05T01:02:31.116Z,994.25
2017-02-05T01:02:57.345Z,994.27
2017-02-05T01:03:23.562Z,994.29
2017-02-05T01:03:49.838Z,994.26
2017-02-05T01:04:16.185Z,994.31
2017-02-05T01:04:42.474Z,994.29
2017-02-05T01:05:08.792Z,994.28
2017-02-05T01:05:35.035Z,994.29
2017-02-05T01:06:01.209Z,994.28
2017-02-05T01:06:27.389Z,994.26
2017-02-05T01:06:53.533Z,994.31
2017-02-05T01:07:19.658Z,994.29
2017-02-05T01:07:45.802Z,994.3
2017-02-05T01:08:12.091Z,994.29
2017-02-05T01:08:38.293Z,994.27
2017-02-05T01:09:04.410Z,994.28
2017-02-05T01:09:30.529Z,994.26
2017-02-05T01:09:56.715Z,994.29
2017-02-05T01:10:22.991Z,994.26
2017-02-05T01:10:49.186Z,994.28
2017-02-05T01:11:15.309Z,994.3
2017-02-05T01:11:41.535Z,994.28
2017-02-05T01:12:07.748Z,994.28
2017-02-05T01:12:33.896Z,994.28
2017-02-05T01:13:00.112Z,994.29
2017-02-05T01:13:26.338Z,994.27
2017-02-05T01:13:52.476Z,994.29
2017-02-05T01:14:18.704Z,994.27
2017-02-05T01:14:44.908Z,994.27
2017-02-05T01:15:11.075Z,994.27
2017-02-05T01:15:37.323Z,994.3
2017-02-05T01:16:03.586Z,994.27
2017-02-05T01:16:29.777Z,994.26
2017-02-05T01:16:56.088Z,994.29
2017-02-05T01:17:22.303Z,994.31
2017-02-05T01:17:48.446Z,994.3
2017-02-05T01:18:14.597Z,994.3
2017-02-05T01:18:40.696Z,994.3
2017-02-05T01:19:06.837Z,994.29
2017-02-05T01:19:33.011Z,994.29
2017-02-05T01:19:59.157Z,994.31
2017-02-05T01:20:25.353Z,994.31
2017-02-05T01:20:51.579Z,994.34
2017-02-05T01:21:17.796Z,994.39
2017-02-05T01:21:43.956Z,994.37
2017-02-05T01:22:10.105Z,994.38
2017-02-05T01:22:36.254Z,994.38
2017-02-05T01:23:02.434Z,994.4
2017-02-05T01:23:28.629Z,994.38
2017-02-05T01:23:54.834Z,994.4
2017-02-05T01:24:21.035Z,994.4
2017-02-05T01:24:47.244Z,994.39
2017-02-05T01:25:13.400Z,994.4
2017-02-05T01:25:39.629Z,994.4
2017-02-05T01:26:05.725Z,994.4
2017-02-05T01:26:31.841Z,994.42
2017-02-05T01:26:58.401Z,994.36
2017-02-05T01:27:24.876Z,994.43
2017-02-05T01:27:51.159Z,994.43
2017-02-05T01:28:17.464Z,994.42
2017-02-05T01:28:43.644Z,994.4
2017-02-05T01:29:09.760Z,994.43
2017-02-05T01:29:35.961Z,994.43
2017-02-05T01:30:03.352Z,994.45
2017-02-05T01:30:29.585Z,994.42
2017-02-05T01:30:55.763Z,994.43
2017-02-05T01:31:21.864Z,994.44
2017-02-05T01:31:48.012Z,994.43
2017-02-05T01:32:14.180Z,994.46
2017-02-05T01:32:40.295Z,994.42
2017-02-05T01:33:06.478Z,994.44
2017-02-05T01:33:32.662Z,994.45
2017-02-05T01:33:58.755Z,994.42
2017-02-05T01:34:25.121Z,994.45
2017-02-05T01:34:51.333Z,994.47
2017-02-05T01:35:17.541Z,994.45
2017-02-05T01:35:43.749Z,994.45
2017-02-05T01:36:09.918Z,994.45
2017-02-05T01:36:36.066Z,994.47
2017-02-05T01:37:02.232Z,994.46
2017-02-05T01:37:28.402Z,994.5
2017-02-05T01:37:54.518Z,994.45
2017-02-05T01:38:20.631Z,994.47
2017-02-05T01:38:46.784Z,994.47
2017-02-05T01:39:12.910Z,994.48
2017-02-05T01:39:39.038Z,994.47
2017-02-05T01:40:05.198Z,994.48
2017-02-05T01:40:31.366Z,994.48
2017-02-05T01:40:57.519Z,994.48
2017-02-05T01:41:23.667Z,994.48
2017-02-05T01:41:49.813Z,994.5
2017-02-05T01:42:16.024Z,994.51
2017-02-05T01:42:42.223Z,994.48
2017-02-05T01:43:08.364Z,994.48
2017-02-05T01:43:34.597Z,994.51
2017-02-05T01:44:00.743Z,994.5
2017-02-05T01:44:26.875Z,994.49
2017-02-05T01:44:53.011Z,994.5
2017-02-05T01:45:19.192Z,994.55
2017-02-05T01:45:45.362Z,994.54
2017-02-05T01:46:11.530Z,994.55
2017-02-05T01:46:37.709Z,994.59
2017-02-05T01:47:03.854Z,994.61
2017-02-05T01:47:29.986Z,994.58
2017-02-05T01:47:56.134Z,994.55
2017-02-05T01:48:22.332Z,994.56
2017-02-05T01:48:48.433Z,994.55
2017-02-05T01:49:14.546Z,994.54
2017-02-05T01:49:40.703Z,994.55
2017-02-05T01:50:06.881Z,994.56
2017-02-05T01:50:33.061Z,994.55
2017-02-05T01:50:59.196Z,994.54
2017-02-05T01:51:25.341Z,994.51
2017-02-05T01:51:51.464Z,994.49
2017-02-05T01:52:17.578Z,994.54
2017-02-05T01:52:43.710Z,994.49
2017-02-05T01:53:09.887Z,994.51
2017-02-05T01:53:36.050Z,994.51
2017-02-05T01:54:02.261Z,994.53
2017-02-05T01:54:28.425Z,994.55
2017-02-05T01:54:54.563Z,994.6
2017-02-05T01:55:20.724Z,994.48
2017-02-05T01:55:46.917Z,994.54
2017-02-05T01:56:13.071Z,994.53
2017-02-05T01:56:39.270Z,994.58
2017-02-05T01:57:05.377Z,994.59
2017-02-05T01:57:31.559Z,994.56
2017-02-05T01:57:57.777Z,994.55
2017-02-05T01:58:24.034Z,994.55
2017-02-05T01:58:50.141Z,994.57
2017-02-05T01:59:16.355Z,994.58
2017-02-05T01:59:42.522Z,994.57
2017-02-05T02:00:08.745Z,994.54
2017-02-05T02:00:34.903Z,994.57
2017-02-05T02:01:01.084Z,994.58
2017-02-05T02:01:27.223Z,994.55
2017-02-05T02:01:53.333Z,994.58
2017-02-05T02:02:19.518Z,994.55
2017-02-05T02:02:45.668Z,994.6
2017-02-05T02:03:11.816Z,994.56
2017-02-05T02:03:38.121Z,994.56
2017-02-05T02:04:04.200Z,994.61
2017-02-05T02:04:30.345Z,994.58
2017-02-05T02:04:56.504Z,994.6
2017-02-05T02:05:22.610Z,994.55
2017-02-05T02:05:48.800Z,994.57
2017-02-05T02:06:14.930Z,994.58
2017-02-05T02:06:41.100Z,994.57
2017-02-05T02:07:07.271Z,994.56
2017-02-05T02:07:33.427Z,994.6
2017-02-05T02:07:59.543Z,994.61
2017-02-05T02:08:25.700Z,994.55
2017-02-05T02:08:51.906Z,994.62
2017-02-05T02:09:18.074Z,994.61
2017-02-05T02:09:44.231Z,994.6
2017-02-05T02:10:10.357Z,994.63
2017-02-05T02:10:36.542Z,994.6
2017-02-05T02:11:02.720Z,994.57
2017-02-05T02:11:28.900Z,994.61
2017-02-05T02:11:55.053Z,994.61
2017-02-05T02:12:21.257Z,994.58
2017-02-05T02:12:47.402Z,994.62
2017-02-05T02:13:13.566Z,994.63
2017-02-05T02:13:39.690Z,994.62
2017-02-05T02:14:05.822Z,994.57
2017-02-05T02:14:32.012Z,994.65
2017-02-05T02:14:58.133Z,994.63
2017-02-05T02:15:24.296Z,994.61
2017-02-05T02:15:50.452Z,994.6
2017-02-05T02:16:16.597Z,994.61
2017-02-05T02:16:42.763Z,994.6
2017-02-05T02:17:08.869Z,994.66
2017-02-05T02:17:34.979Z,994.67
2017-02-05T02:18:01.152Z,994.67
2017-02-05T02:18:27.340Z,994.69
2017-02-05T02:18:53.445Z,994.66
2017-02-05T02:19:19.595Z,994.63
2017-02-05T02:19:45.795Z,994.64
2017-02-05T02:20:11.981Z,994.62
2017-02-05T02:20:38.145Z,994.69
2017-02-05T02:21:04.283Z,994.67
2017-02-05T02:21:30.489Z,994.67
2017-02-05T02:21:56.657Z,994.68
2017-02-05T02:22:22.833Z,994.7
2017-02-05T02:22:48.967Z,994.67
2017-02-05T02:23:15.122Z,994.71
2017-02-05T02:23:41.317Z,994.73
2017-02-05T02:24:07.497Z,994.68
2017-02-05T02:24:33.671Z,994.71
2017-02-05T02:24:59.801Z,994.69
2017-02-05T02:25:25.988Z,994.72
2017-02-05T02:25:52.127Z,994.68
2017-02-05T02:26:18.417Z,994.73
2017-02-05T02:26:44.556Z,994.69
2017-02-05T02:27:10.725Z,994.68
2017-02-05T02:27:36.846Z,994.68
2017-02-05T02:28:02.988Z,994.69
2017-02-05T02:28:29.120Z,994.69
2017-02-05T02:28:55.280Z,994.7
2017-02-05T02:29:21.463Z,994.71
2017-02-05T02:29:47.621Z,994.68
2017-02-05T02:30:13.786Z,994.69
2017-02-05T02:30:39.931Z,994.66
2017-02-05T02:31:06.161Z,994.69
2017-02-05T02:31:32.331Z,994.69
2017-02-05T02:31:58.493Z,994.73
2017-02-05T02:32:24.660Z,994.72
2017-02-05T02:32:50.846Z,994.7
2017-02-05T02:33:17.042Z,994.71
2017-02-05T02:33:43.318Z,994.73
2017-02-05T02:34:09.483Z,994.71
2017-02-05T02:34:35.694Z,994.69
2017-02-05T02:35:01.907Z,994.68
2017-02-05T02:35:28.081Z,994.68
2017-02-05T02:35:54.228Z,994.7
2017-02-05T02:36:20.427Z,994.7
2017-02-05T02:36:46.574Z,994.73
2017-02-05T02:37:12.713Z,994.71
2017-02-05T02:37:38.861Z,994.75
2017-02-05T02:38:05.033Z,994.72
2017-02-05T02:38:31.168Z,994.73
2017-02-05T02:38:57.367Z,994.75
2017-02-05T02:39:23.511Z,994.73
2017-02-05T02:39:49.646Z,994.74
2017-02-05T02:40:15.792Z,994.74
2017-02-05T02:40:41.941Z,994.73
2017-02-05T02:41:08.077Z,994.69
2017-02-05T02:41:34.248Z,994.74
2017-02-05T02:42:00.367Z,994.73
2017-02-05T02:42:26.477Z,994.73
2017-02-05T02:42:52.613Z,994.73
2017-02-05T02:43:18.774Z,994.76
2017-02-05T02:43:44.948Z,994.73
2017-02-05T02:44:11.144Z,994.75
2017-02-05T02:44:37.370Z,994.75
2017-02-05T02:45:03.523Z,994.78
2017-02-05T02:45:29.663Z,994.75
2017-02-05T02:45:55.800Z,994.75
2017-02-05T02:46:22.013Z,994.8
2017-02-05T02:46:48.156Z,994.78
2017-02-05T02:47:14.339Z,994.77
2017-02-05T02:47:40.508Z,994.77
2017-02-05T02:48:06.619Z,994.75
2017-02-05T02:48:32.809Z,994.76
2017-02-05T02:48:58.974Z,994.79
2017-02-05T02:49:25.144Z,994.76
2017-02-05T02:49:51.396Z,994.72
2017-02-05T02:50:17.558Z,994.73
2017-02-05T02:50:43.772Z,994.79
2017-02-05T02:51:09.901Z,994.8
2017-02-05T02:51:36.016Z,994.73
2017-02-05T02:52:02.167Z,994.74
2017-02-05T02:52:28.299Z,994.74
2017-02-05T02:52:54.431Z,994.75
2017-02-05T02:53:20.582Z,994.77
2017-02-05T02:53:46.800Z,994.76
2017-02-05T02:54:13.000Z,994.81
2017-02-05T02:54:39.114Z,994.75
2017-02-05T02:55:05.277Z,994.72
2017-02-05T02:55:31.439Z,994.76
2017-02-05T02:55:57.620Z,994.73
2017-02-05T02:56:23.786Z,994.75
2017-02-05T02:56:49.938Z,994.76
2017-02-05T02:57:16.084Z,994.73
2017-02-05T02:57:42.248Z,994.74
2017-02-05T02:58:08.383Z,994.75
2017-02-05T02:58:34.499Z,994.75
2017-02-05T02:59:00.656Z,994.72
2017-02-05T02:59:26.817Z,994.75
2017-02-05T02:59:52.904Z,994.74
2017-02-05T03:00:19.083Z,994.75
2017-02-05T03:00:45.234Z,994.76
2017-02-05T03:01:11.361Z,994.74
2017-02-05T03:01:37.559Z,994.72
2017-02-05T03:02:03.671Z,994.74
2017-02-05T03:02:29.877Z,994.76
2017-02-05T03:02:56.051Z,994.78
2017-02-05T03:03:22.183Z,994.71
2017-02-05T03:03:48.362Z,994.75
2017-02-05T03:04:14.521Z,994.74
2017-02-05T03:04:40.650Z,994.71
2017-02-05T03:05:06.769Z,994.74
2017-02-05T03:05:32.940Z,994.75
2017-02-05T03:05:59.117Z,994.77
2017-02-05T03:06:25.254Z,994.79
2017-02-05T03:06:51.398Z,994.73
2017-02-05T03:07:17.569Z,994.77
2017-02-05T03:07:43.773Z,994.78
2017-02-05T03:08:09.944Z,994.75
2017-02-05T03:08:36.115Z,994.74
2017-02-05T03:09:02.310Z,994.76
2017-02-05T03:09:28.471Z,994.76
2017-02-05T03:09:54.605Z,994.78
2017-02-05T03:10:20.734Z,994.79
2017-02-05T03:10:46.924Z,994.8
2017-02-05T03:11:13.042Z,994.73
2017-02-05T03:11:39.223Z,994.79
2017-02-05T03:12:05.408Z,994.77
2017-02-05T03:12:31.605Z,994.82
2017-02-05T03:12:57.699Z,994.82
2017-02-05T03:13:23.847Z,994.82
2017-02-05T03:13:49.973Z,994.81
2017-02-05T03:14:16.183Z,994.83
2017-02-05T03:14:42.322Z,994.84
2017-02-05T03:15:08.505Z,994.86
2017-02-05T03:15:34.632Z,994.84
2017-02-05T03:16:00.745Z,994.84
2017-02-05T03:16:26.924Z,994.85
2017-02-05T03:16:53.111Z,994.88
2017-02-05T03:17:19.263Z,994.81
2017-02-05T03:17:45.470Z,994.86
2017-02-05T03:18:11.606Z,994.89
2017-02-05T03:18:37.796Z,994.85
2017-02-05T03:19:03.988Z,994.88
2017-02-05T03:19:30.160Z,994.89
2017-02-05T03:19:56.326Z,994.91
2017-02-05T03:20:22.489Z,994.92
2017-02-05T03:20:48.611Z,994.88
2017-02-05T03:21:14.740Z,994.9
2017-02-05T03:21:40.922Z,994.93
2017-02-05T03:22:07.159Z,994.91
2017-02-05T03:22:33.293Z,994.91
2017-02-05T03:22:59.432Z,994.94
2017-02-05T03:23:25.586Z,994.98
2017-02-05T03:23:51.744Z,994.95
2017-02-05T03:24:17.938Z,994.98
2017-02-05T03:24:44.094Z,994.96
2017-02-05T03:25:10.256Z,994.98
2017-02-05T03:25:36.349Z,995
2017-02-05T03:26:02.473Z,994.96
2017-02-05T03:26:28.637Z,995
2017-02-05T03:26:54.785Z,994.97
2017-02-05T03:27:20.963Z,994.99
2017-02-05T03:27:47.152Z,994.97
2017-02-05T03:28:13.255Z,995.01
2017-02-05T03:28:39.424Z,994.96
2017-02-05T03:29:05.548Z,994.98
2017-02-05T03:29:31.692Z,994.97
2017-02-05T03:29:57.856Z,995.03
2017-02-05T03:30:23.999Z,994.99
2017-02-05T03:30:50.151Z,994.97
2017-02-05T03:31:16.338Z,995.02
2017-02-05T03:31:42.463Z,994.96
2017-02-05T03:32:08.614Z,995
2017-02-05T03:32:34.769Z,995.05
2017-02-05T03:33:00.992Z,995.03
2017-02-05T03:33:27.131Z,994.96
2017-02-05T03:33:53.285Z,994.99
2017-02-05T03:34:19.390Z,994.98
2017-02-05T03:34:45.544Z,994.99
2017-02-05T03:35:11.723Z,994.99
2017-02-05T03:35:37.896Z,994.98
2017-02-05T03:36:04.107Z,994.98
2017-02-05T03:36:30.307Z,994.96
2017-02-05T03:36:56.427Z,994.96
2017-02-05T03:37:22.606Z,994.97
2017-02-05T03:37:48.733Z,995.01
2017-02-05T03:38:14.885Z,995.02
2017-02-05T03:38:41.032Z,994.96
2017-02-05T03:39:07.207Z,995
2017-02-05T03:39:33.402Z,994.99
2017-02-05T03:39:59.593Z,994.99
2017-02-05T03:40:25.784Z,994.99
2017-02-05T03:40:51.935Z,994.95
2017-02-05T03:41:18.021Z,995.01
2017-02-05T03:41:44.184Z,994.98
2017-02-05T03:42:10.346Z,994.98
2017-02-05T03:42:36.483Z,995.01
2017-02-05T03:43:02.618Z,994.97
2017-02-05T03:43:28.746Z,995
2017-02-05T03:43:54.894Z,995.01
2017-02-05T03:44:21.041Z,995.01
2017-02-05T03:44:47.215Z,994.98
2017-02-05T03:45:13.318Z,995
2017-02-05T03:45:39.493Z,994.99
2017-02-05T03:46:05.634Z,995.03
2017-02-05T03:46:31.771Z,994.99
2017-02-05T03:46:57.881Z,994.99
2017-02-05T03:47:23.989Z,995.02
2017-02-05T03:47:50.141Z,994.99
2017-02-05T03:48:17.712Z,995.04
2017-02-05T03:48:43.841Z,995.04
2017-02-05T03:49:09.997Z,995.06
2017-02-05T03:49:36.137Z,995.03
2017-02-05T03:50:02.370Z,995.01
2017-02-05T03:50:28.477Z,995.01
2017-02-05T03:50:54.623Z,995.04
2017-02-05T03:51:20.801Z,995.05
2017-02-05T03:51:46.916Z,995.04
2017-02-05T03:52:13.076Z,995.03
2017-02-05T03:52:39.237Z,995.05
2017-02-05T03:53:05.397Z,995.06
2017-02-05T03:53:31.555Z,995.02
2017-02-05T03:53:57.776Z,995.03
2017-02-05T03:54:23.914Z,995.03
2017-02-05T03:54:50.021Z,995.03
2017-02-05T03:55:16.188Z,995.01
2017-02-05T03:55:42.296Z,995.03
2017-02-05T03:56:08.435Z,995.02
2017-02-05T03:56:34.624Z,995.06
2017-02-05T03:57:00.786Z,995.01
2017-02-05T03:57:26.986Z,995.04
2017-02-05T03:57:53.168Z,995.03
2017-02-05T03:58:19.342Z,995.07
2017-02-05T03:58:45.507Z,995.07
2017-02-05T03:59:11.676Z,995.04
2017-02-05T03:59:37.827Z,995.06
2017-02-05T04:00:03.986Z,995.05
2017-02-05T04:00:30.174Z,995.08
2017-02-05T04:00:56.276Z,995.07
2017-02-05T04:01:22.483Z,995.08
2017-02-05T04:01:48.641Z,995.1
2017-02-05T04:02:14.789Z,995.09
2017-02-05T04:02:40.946Z,995.04
2017-02-05T04:03:07.071Z,995.08
2017-02-05T04:03:33.294Z,995.09
2017-02-05T04:03:59.434Z,995.11
2017-02-05T04:04:25.618Z,995.06
2017-02-05T04:04:51.821Z,995.07
2017-02-05T04:05:17.978Z,995.11
2017-02-05T04:05:44.176Z,995.11
2017-02-05T04:06:10.332Z,995.11
2017-02-05T04:06:36.432Z,995.11
2017-02-05T04:07:02.596Z,995.17
2017-02-05T04:07:28.787Z,995.13
2017-02-05T04:07:54.955Z,995.13
2017-02-05T04:08:21.088Z,995.13
2017-02-05T04:08:47.240Z,995.16
2017-02-05T04:09:13.430Z,995.17
2017-02-05T04:09:39.587Z,995.16
2017-02-05T04:10:05.745Z,995.12
2017-02-05T04:10:31.915Z,995.14
2017-02-05T04:10:58.098Z,995.17
2017-02-05T04:11:24.270Z,995.14
2017-02-05T04:11:50.773Z,995.17
2017-02-05T04:12:16.959Z,995.15
2017-02-05T04:12:43.132Z,995.16
2017-02-05T04:13:09.245Z,995.19
2017-02-05T04:13:35.350Z,995.16
2017-02-05T04:14:01.542Z,995.14
2017-02-05T04:14:27.701Z,995.18
2017-02-05T04:14:53.887Z,995.13
2017-02-05T04:15:19.995Z,995.17
2017-02-05T04:15:46.143Z,995.14
2017-02-05T04:16:12.312Z,995.14
2017-02-05T04:16:38.477Z,995.16
2017-02-05T04:17:04.699Z,995.2
2017-02-05T04:17:30.836Z,995.19
2017-02-05T04:17:57.017Z,995.19
2017-02-05T04:18:23.158Z,995.2
2017-02-05T04:18:49.351Z,995.24
2017-02-05T04:19:15.513Z,995.27
2017-02-05T04:19:41.695Z,995.2
2017-02-05T04:20:07.787Z,995.19
2017-02-05T04:20:33.881Z,995.18
2017-02-05T04:21:00.106Z,995.26
2017-02-05T04:21:26.294Z,995.2
2017-02-05T04:21:52.432Z,995.23
2017-02-05T04:22:18.625Z,995.21
2017-02-05T04:22:44.717Z,995.24
2017-02-05T04:23:10.882Z,995.29
2017-02-05T04:23:36.991Z,995.27
2017-02-05T04:24:03.152Z,995.24
2017-02-05T04:24:29.314Z,995.24
2017-02-05T04:24:55.467Z,995.23
2017-02-05T04:25:21.628Z,995.21
2017-02-05T04:25:47.746Z,995.22
2017-02-05T04:26:13.899Z,995.23
2017-02-05T04:26:40.161Z,995.16
2017-02-05T04:27:06.261Z,995.24
2017-02-05T04:27:32.458Z,995.21
2017-02-05T04:27:58.613Z,995.23
2017-02-05T04:28:24.735Z,995.26
2017-02-05T04:28:50.822Z,995.25
2017-02-05T04:29:16.962Z,995.21
2017-02-05T04:29:43.118Z,995.18
2017-02-05T04:30:09.299Z,995.21
2017-02-05T04:30:35.440Z,995.24
2017-02-05T04:31:01.614Z,995.21
2017-02-05T04:31:27.784Z,995.22
2017-02-05T04:31:53.927Z,995.24
2017-02-05T04:32:20.121Z,995.2
2017-02-05T04:32:46.293Z,995.23
2017-02-05T04:33:12.468Z,995.21
2017-02-05T04:33:38.614Z,995.24
2017-02-05T04:34:04.752Z,995.25
2017-02-05T04:34:30.902Z,995.24
2017-02-05T04:34:57.044Z,995.23
2017-02-05T04:35:23.229Z,995.25
2017-02-05T04:35:49.350Z,995.26
2017-02-05T04:36:15.455Z,995.25
2017-02-05T04:36:41.555Z,995.28
2017-02-05T04:37:07.697Z,995.28
2017-02-05T04:37:33.860Z,995.31
2017-02-05T04:37:59.991Z,995.29
2017-02-05T04:38:26.105Z,995.3
2017-02-05T04:38:52.278Z,995.28
2017-02-05T04:39:18.459Z,995.33
2017-02-05T04:39:44.549Z,995.34
2017-02-05T04:40:10.702Z,995.35
2017-02-05T04:40:36.890Z,995.37
2017-02-05T04:41:03.009Z,995.33
2017-02-05T04:41:29.165Z,995.36
2017-02-05T04:41:55.390Z,995.33
2017-02-05T04:42:21.580Z,995.33
2017-02-05T04:42:47.744Z,995.33
2017-02-05T04:43:13.924Z,995.37
2017-02-05T04:43:40.097Z,995.36
2017-02-05T04:44:06.262Z,995.37
2017-02-05T04:44:32.453Z,995.31
2017-02-05T04:44:58.604Z,995.33
2017-02-05T04:45:24.787Z,995.36
2017-02-05T04:45:50.940Z,995.3
2017-02-05T04:46:17.065Z,995.36
2017-02-05T04:46:43.225Z,995.32
2017-02-05T04:47:09.418Z,995.3
2017-02-05T04:47:35.574Z,995.32
2017-02-05T04:48:01.715Z,995.32
2017-02-05T04:48:27.868Z,995.36
2017-02-05T04:48:54.053Z,995.4
2017-02-05T04:49:20.147Z,995.37
2017-02-05T04:49:46.234Z,995.36
2017-02-05T04:50:12.410Z,995.41
2017-02-05T04:50:38.558Z,995.38
2017-02-05T04:51:04.705Z,995.4
2017-02-05T04:51:30.834Z,995.37
2017-02-05T04:51:56.988Z,995.38
2017-02-05T04:52:23.116Z,995.36
2017-02-05T04:52:49.213Z,995.37
2017-02-05T04:53:15.326Z,995.38
2017-02-05T04:53:41.432Z,995.46
2017-02-05T04:54:07.555Z,995.39
2017-02-05T04:54:33.692Z,995.36
2017-02-05T04:54:59.884Z,995.38
2017-02-05T04:55:25.986Z,995.38
2017-02-05T04:55:52.070Z,995.38
2017-02-05T04:56:18.223Z,995.37
2017-02-05T04:56:44.358Z,995.38
2017-02-05T04:57:10.503Z,995.38
2017-02-05T04:57:36.629Z,995.43
2017-02-05T04:58:02.774Z,995.35
2017-02-05T04:58:28.941Z,995.36
2017-02-05T04:58:55.147Z,995.35
2017-02-05T04:59:21.264Z,995.39
2017-02-05T04:59:47.455Z,995.4
2017-02-05T05:00:13.623Z,995.36
2017-02-05T05:00:39.817Z,995.4
2017-02-05T05:01:05.916Z,995.37
2017-02-05T05:01:32.114Z,995.39
2017-02-05T05:01:58.262Z,995.43
2017-02-05T05:02:24.362Z,995.43
2017-02-05T05:02:50.519Z,995.43
2017-02-05T05:03:16.641Z,995.41
2017-02-05T05:03:42.871Z,995.42
2017-02-05T05:04:09.008Z,995.43
2017-02-05T05:04:35.183Z,995.44
2017-02-05T05:05:01.372Z,995.46
2017-02-05T05:05:27.487Z,995.47
2017-02-05T05:05:53.690Z,995.48
2017-02-05T05:06:19.849Z,995.47
2017-02-05T05:06:46.022Z,995.47
2017-02-05T05:07:12.218Z,995.47
2017-02-05T05:07:38.410Z,995.42
2017-02-05T05:08:04.503Z,995.45
2017-02-05T05:08:30.650Z,995.45
2017-02-05T05:08:56.785Z,995.43
2017-02-05T05:09:22.963Z,995.39
2017-02-05T05:09:49.079Z,995.41
2017-02-05T05:10:15.315Z,995.42
2017-02-05T05:10:41.450Z,995.46
2017-02-05T05:11:07.596Z,995.41
2017-02-05T05:11:33.752Z,995.41
2017-02-05T05:11:59.919Z,995.45
2017-02-05T05:12:26.032Z,995.4
2017-02-05T05:12:52.178Z,995.47
2017-02-05T05:13:18.309Z,995.44
2017-02-05T05:13:44.436Z,995.47
2017-02-05T05:14:10.577Z,995.49
2017-02-05T05:14:36.736Z,995.48
2017-02-05T05:15:02.893Z,995.48
2017-02-05T05:15:29.031Z,995.46
2017-02-05T05:15:55.120Z,995.48
2017-02-05T05:16:21.273Z,995.43
2017-02-05T05:16:47.466Z,995.44
2017-02-05T05:17:13.557Z,995.42
2017-02-05T05:17:39.696Z,995.45
2017-02-05T05:18:05.897Z,995.46
2017-02-05T05:18:32.055Z,995.45
2017-02-05T05:18:58.223Z,995.47
2017-02-05T05:19:24.384Z,995.45
2017-02-05T05:19:50.515Z,995.48
2017-02-05T05:20:16.639Z,995.46
2017-02-05T05:20:42.808Z,995.47
2017-02-05T05:21:08.965Z,995.51
2017-02-05T05:21:35.099Z,995.5
2017-02-05T05:22:01.259Z,995.52
2017-02-05T05:22:27.375Z,995.49
2017-02-05T05:22:53.537Z,995.46
2017-02-05T05:23:19.696Z,995.48
2017-02-05T05:23:45.855Z,995.43
2017-02-05T05:24:11.983Z,995.45
2017-02-05T05:24:38.145Z,995.48
2017-02-05T05:25:04.240Z,995.51
2017-02-05T05:25:30.423Z,995.49
2017-02-05T05:25:56.571Z,995.51
2017-02-05T05:26:22.725Z,995.52
2017-02-05T05:26:48.886Z,995.49
2017-02-05T05:27:14.994Z,995.51
2017-02-05T05:27:41.127Z,995.48